sensor_id;sensor_type;location;lat;lon;timestamp;temperature;humidity
18361;SHT31;9308;48.550;9.108;2023-02-15T00:00:03;1.55;75.28
18361;SHT31;9308;48.550;9.108;2023-02-15T00:02:30;1.59;75.76
18361;SHT31;9308;48.550;9.108;2023-02-15T00:04:56;1.68;75.91
18361;SHT31;9308;48.550;9.108;2023-02-15T00:07:21;1.61;75.97
18361;SHT31;9308;48.550;9.108;2023-02-15T00:09:47;1.44;76.51
18361;SHT31;9308;48.550;9.108;2023-02-15T00:12:14;1.43;75.75
18361;SHT31;9308;48.550;9.108;2023-02-15T00:14:40;1.50;75.64
18361;SHT31;9308;48.550;9.108;2023-02-15T00:17:05;1.41;75.23
18361;SHT31;9308;48.550;9.108;2023-02-15T00:19:31;1.44;75.55
18361;SHT31;9308;48.550;9.108;2023-02-15T00:21:56;1.34;76.22
18361;SHT31;9308;48.550;9.108;2023-02-15T00:24:22;1.61;75.40
18361;SHT31;9308;48.550;9.108;2023-02-15T00:26:47;1.51;75.68
18361;SHT31;9308;48.550;9.108;2023-02-15T00:29:15;1.27;76.02
18361;SHT31;9308;48.550;9.108;2023-02-15T00:31:41;1.19;76.64
18361;SHT31;9308;48.550;9.108;2023-02-15T00:34:11;1.47;76.38
18361;SHT31;9308;48.550;9.108;2023-02-15T00:36:37;1.26;76.30
18361;SHT31;9308;48.550;9.108;2023-02-15T00:39:03;1.45;75.60
18361;SHT31;9308;48.550;9.108;2023-02-15T00:41:30;1.24;76.03
18361;SHT31;9308;48.550;9.108;2023-02-15T00:43:56;1.13;76.63
18361;SHT31;9308;48.550;9.108;2023-02-15T00:46:21;1.24;75.59
18361;SHT31;9308;48.550;9.108;2023-02-15T00:48:47;1.35;75.88
18361;SHT31;9308;48.550;9.108;2023-02-15T00:51:13;1.22;75.92
18361;SHT31;9308;48.550;9.108;2023-02-15T00:53:38;1.40;75.35
18361;SHT31;9308;48.550;9.108;2023-02-15T00:56:04;1.17;76.12
18361;SHT31;9308;48.550;9.108;2023-02-15T00:58:29;1.17;75.99
18361;SHT31;9308;48.550;9.108;2023-02-15T01:01:03;1.15;75.95
18361;SHT31;9308;48.550;9.108;2023-02-15T01:03:29;1.07;76.55
18361;SHT31;9308;48.550;9.108;2023-02-15T01:05:54;1.15;75.77
18361;SHT31;9308;48.550;9.108;2023-02-15T01:08:20;1.19;75.74
18361;SHT31;9308;48.550;9.108;2023-02-15T01:10:45;1.22;75.77
18361;SHT31;9308;48.550;9.108;2023-02-15T01:13:14;1.11;76.58
18361;SHT31;9308;48.550;9.108;2023-02-15T01:15:39;1.07;76.27
18361;SHT31;9308;48.550;9.108;2023-02-15T01:18:05;1.17;76.43
18361;SHT31;9308;48.550;9.108;2023-02-15T01:20:34;1.11;76.26
18361;SHT31;9308;48.550;9.108;2023-02-15T01:23:00;1.24;76.45
18361;SHT31;9308;48.550;9.108;2023-02-15T01:25:26;1.23;76.62
18361;SHT31;9308;48.550;9.108;2023-02-15T01:27:51;1.28;75.87
18361;SHT31;9308;48.550;9.108;2023-02-15T01:30:17;1.44;76.25
18361;SHT31;9308;48.550;9.108;2023-02-15T01:32:42;1.22;76.41
18361;SHT31;9308;48.550;9.108;2023-02-15T01:35:09;1.09;77.10
18361;SHT31;9308;48.550;9.108;2023-02-15T01:37:35;1.10;76.92
18361;SHT31;9308;48.550;9.108;2023-02-15T01:40:02;1.03;77.34
18361;SHT31;9308;48.550;9.108;2023-02-15T01:42:29;0.95;77.25
18361;SHT31;9308;48.550;9.108;2023-02-15T01:47:27;1.16;76.42
18361;SHT31;9308;48.550;9.108;2023-02-15T01:52:30;1.30;75.68
18361;SHT31;9308;48.550;9.108;2023-02-15T01:54:56;1.16;76.06
18361;SHT31;9308;48.550;9.108;2023-02-15T01:57:23;1.07;76.09
18361;SHT31;9308;48.550;9.108;2023-02-15T01:59:56;1.06;76.94
18361;SHT31;9308;48.550;9.108;2023-02-15T02:02:23;1.09;76.25
18361;SHT31;9308;48.550;9.108;2023-02-15T02:04:51;0.96;76.67
18361;SHT31;9308;48.550;9.108;2023-02-15T02:07:20;0.93;76.68
18361;SHT31;9308;48.550;9.108;2023-02-15T02:09:48;1.07;76.16
18361;SHT31;9308;48.550;9.108;2023-02-15T02:12:15;1.13;76.44
18361;SHT31;9308;48.550;9.108;2023-02-15T02:14:42;0.90;76.05
18361;SHT31;9308;48.550;9.108;2023-02-15T02:17:33;0.85;76.80
18361;SHT31;9308;48.550;9.108;2023-02-15T02:23:27;0.88;76.53
18361;SHT31;9308;48.550;9.108;2023-02-15T02:26:55;0.95;76.27
18361;SHT31;9308;48.550;9.108;2023-02-15T02:34:30;1.10;76.00
18361;SHT31;9308;48.550;9.108;2023-02-15T02:42:41;1.17;75.56
18361;SHT31;9308;48.550;9.108;2023-02-15T02:47:41;0.97;76.53
18361;SHT31;9308;48.550;9.108;2023-02-15T02:50:12;1.07;76.22
18361;SHT31;9308;48.550;9.108;2023-02-15T02:52:42;0.97;76.41
18361;SHT31;9308;48.550;9.108;2023-02-15T02:55:17;1.04;76.21
18361;SHT31;9308;48.550;9.108;2023-02-15T02:57:57;0.83;76.88
18361;SHT31;9308;48.550;9.108;2023-02-15T03:00:25;0.73;76.48
18361;SHT31;9308;48.550;9.108;2023-02-15T03:02:56;0.86;75.76
18361;SHT31;9308;48.550;9.108;2023-02-15T03:05:26;0.78;76.32
18361;SHT31;9308;48.550;9.108;2023-02-15T03:07:54;0.82;75.82
18361;SHT31;9308;48.550;9.108;2023-02-15T03:10:23;0.68;76.40
18361;SHT31;9308;48.550;9.108;2023-02-15T03:12:49;0.71;76.70
18361;SHT31;9308;48.550;9.108;2023-02-15T03:15:26;0.66;76.55
18361;SHT31;9308;48.550;9.108;2023-02-15T03:17:56;0.68;77.02
18361;SHT31;9308;48.550;9.108;2023-02-15T03:20:30;0.78;75.71
18361;SHT31;9308;48.550;9.108;2023-02-15T03:23:09;0.54;76.81
18361;SHT31;9308;48.550;9.108;2023-02-15T03:25:41;0.51;77.03
18361;SHT31;9308;48.550;9.108;2023-02-15T03:28:15;0.52;76.63
18361;SHT31;9308;48.550;9.108;2023-02-15T03:30:45;0.50;76.77
18361;SHT31;9308;48.550;9.108;2023-02-15T03:33:13;0.44;76.80
18361;SHT31;9308;48.550;9.108;2023-02-15T03:35:54;0.71;76.17
18361;SHT31;9308;48.550;9.108;2023-02-15T03:38:29;0.42;76.58
18361;SHT31;9308;48.550;9.108;2023-02-15T03:40:58;0.45;76.55
18361;SHT31;9308;48.550;9.108;2023-02-15T03:43:59;0.65;75.54
18361;SHT31;9308;48.550;9.108;2023-02-15T03:49:17;0.42;76.32
18361;SHT31;9308;48.550;9.108;2023-02-15T03:51:46;0.54;76.97
18361;SHT31;9308;48.550;9.108;2023-02-15T03:54:25;0.72;75.76
18361;SHT31;9308;48.550;9.108;2023-02-15T03:57:12;0.71;76.10
18361;SHT31;9308;48.550;9.108;2023-02-15T03:59:57;0.45;76.85
18361;SHT31;9308;48.550;9.108;2023-02-15T04:03:12;0.64;77.21
18361;SHT31;9308;48.550;9.108;2023-02-15T04:05:41;0.69;77.54
18361;SHT31;9308;48.550;9.108;2023-02-15T04:08:07;0.65;76.52
18361;SHT31;9308;48.550;9.108;2023-02-15T04:10:33;0.62;76.19
18361;SHT31;9308;48.550;9.108;2023-02-15T04:13:17;0.33;77.31
18361;SHT31;9308;48.550;9.108;2023-02-15T04:15:42;0.37;77.43
18361;SHT31;9308;48.550;9.108;2023-02-15T04:18:26;0.34;77.10
18361;SHT31;9308;48.550;9.108;2023-02-15T04:21:10;0.52;76.08
18361;SHT31;9308;48.550;9.108;2023-02-15T04:23:54;0.62;75.60
18361;SHT31;9308;48.550;9.108;2023-02-15T04:26:37;0.30;76.29
18361;SHT31;9308;48.550;9.108;2023-02-15T04:29:03;0.24;76.77
18361;SHT31;9308;48.550;9.108;2023-02-15T04:31:28;0.20;76.63
18361;SHT31;9308;48.550;9.108;2023-02-15T04:33:54;0.19;76.57
18361;SHT31;9308;48.550;9.108;2023-02-15T04:36:19;0.16;76.71
18361;SHT31;9308;48.550;9.108;2023-02-15T04:38:45;0.19;76.39
18361;SHT31;9308;48.550;9.108;2023-02-15T04:41:10;0.26;76.48
18361;SHT31;9308;48.550;9.108;2023-02-15T04:43:38;0.17;76.50
18361;SHT31;9308;48.550;9.108;2023-02-15T04:46:03;0.30;75.91
18361;SHT31;9308;48.550;9.108;2023-02-15T04:48:29;0.58;74.83
18361;SHT31;9308;48.550;9.108;2023-02-15T04:50:55;0.47;74.62
18361;SHT31;9308;48.550;9.108;2023-02-15T04:53:20;0.16;75.92
18361;SHT31;9308;48.550;9.108;2023-02-15T04:55:46;0.12;76.23
18361;SHT31;9308;48.550;9.108;2023-02-15T04:58:11;0.04;76.81
18361;SHT31;9308;48.550;9.108;2023-02-15T05:00:37;0.12;76.48
18361;SHT31;9308;48.550;9.108;2023-02-15T05:03:02;0.19;76.27
18361;SHT31;9308;48.550;9.108;2023-02-15T05:05:28;0.24;75.97
18361;SHT31;9308;48.550;9.108;2023-02-15T05:07:53;0.19;76.10
18361;SHT31;9308;48.550;9.108;2023-02-15T05:10:19;0.00;77.11
18361;SHT31;9308;48.550;9.108;2023-02-15T05:12:45;0.00;77.40
18361;SHT31;9308;48.550;9.108;2023-02-15T05:15:10;0.07;77.79
18361;SHT31;9308;48.550;9.108;2023-02-15T05:17:36;0.06;77.16
18361;SHT31;9308;48.550;9.108;2023-02-15T05:20:01;-0.15;77.64
18361;SHT31;9308;48.550;9.108;2023-02-15T05:22:27;-0.15;77.58
18361;SHT31;9308;48.550;9.108;2023-02-15T05:24:52;0.16;76.76
18361;SHT31;9308;48.550;9.108;2023-02-15T05:27:44;0.00;76.39
18361;SHT31;9308;48.550;9.108;2023-02-15T05:30:28;0.10;76.32
18361;SHT31;9308;48.550;9.108;2023-02-15T05:32:54;0.19;76.05
18361;SHT31;9308;48.550;9.108;2023-02-15T05:35:19;0.04;76.59
18361;SHT31;9308;48.550;9.108;2023-02-15T05:37:45;-0.04;76.98
18361;SHT31;9308;48.550;9.108;2023-02-15T05:40:11;-0.13;76.91
18361;SHT31;9308;48.550;9.108;2023-02-15T05:42:36;-0.11;76.44
18361;SHT31;9308;48.550;9.108;2023-02-15T05:45:02;-0.05;76.44
18361;SHT31;9308;48.550;9.108;2023-02-15T05:47:29;-0.11;76.54
18361;SHT31;9308;48.550;9.108;2023-02-15T05:49:54;-0.11;76.31
18361;SHT31;9308;48.550;9.108;2023-02-15T05:52:20;-0.26;76.47
18361;SHT31;9308;48.550;9.108;2023-02-15T05:54:45;-0.07;76.04
18361;SHT31;9308;48.550;9.108;2023-02-15T05:57:10;-0.15;76.17
18361;SHT31;9308;48.550;9.108;2023-02-15T05:59:36;-0.15;76.06
18361;SHT31;9308;48.550;9.108;2023-02-15T06:02:01;-0.28;76.27
18361;SHT31;9308;48.550;9.108;2023-02-15T06:04:27;-0.11;75.92
18361;SHT31;9308;48.550;9.108;2023-02-15T06:06:52;-0.19;76.29
18361;SHT31;9308;48.550;9.108;2023-02-15T06:09:18;-0.34;76.64
18361;SHT31;9308;48.550;9.108;2023-02-15T06:11:45;-0.28;76.62
18361;SHT31;9308;48.550;9.108;2023-02-15T06:14:11;-0.29;76.30
18361;SHT31;9308;48.550;9.108;2023-02-15T06:16:36;-0.11;76.42
18361;SHT31;9308;48.550;9.108;2023-02-15T06:19:02;-0.21;75.72
18361;SHT31;9308;48.550;9.108;2023-02-15T06:21:29;-0.17;76.01
18361;SHT31;9308;48.550;9.108;2023-02-15T06:23:55;-0.24;76.43
18361;SHT31;9308;48.550;9.108;2023-02-15T06:26:20;-0.13;76.04
18361;SHT31;9308;48.550;9.108;2023-02-15T06:28:45;-0.11;75.83
18361;SHT31;9308;48.550;9.108;2023-02-15T06:31:11;-0.17;75.86
18361;SHT31;9308;48.550;9.108;2023-02-15T06:33:36;-0.28;76.41
18361;SHT31;9308;48.550;9.108;2023-02-15T06:36:02;-0.35;76.49
18361;SHT31;9308;48.550;9.108;2023-02-15T06:38:29;-0.29;75.72
18361;SHT31;9308;48.550;9.108;2023-02-15T06:40:54;-0.05;75.94
18361;SHT31;9308;48.550;9.108;2023-02-15T06:43:20;-0.19;76.02
18361;SHT31;9308;48.550;9.108;2023-02-15T06:45:45;-0.38;76.54
18361;SHT31;9308;48.550;9.108;2023-02-15T06:48:11;-0.05;75.74
18361;SHT31;9308;48.550;9.108;2023-02-15T06:50:36;-0.03;75.32
18361;SHT31;9308;48.550;9.108;2023-02-15T06:53:02;-0.03;75.86
18361;SHT31;9308;48.550;9.108;2023-02-15T06:55:28;0.00;75.12
18361;SHT31;9308;48.550;9.108;2023-02-15T06:57:53;0.19;74.51
18361;SHT31;9308;48.550;9.108;2023-02-15T07:00:19;0.17;74.72
18361;SHT31;9308;48.550;9.108;2023-02-15T07:02:44;0.33;74.28
18361;SHT31;9308;48.550;9.108;2023-02-15T07:05:10;0.29;74.97
18361;SHT31;9308;48.550;9.108;2023-02-15T07:07:35;0.12;75.45
18361;SHT31;9308;48.550;9.108;2023-02-15T07:10:02;0.31;74.56
18361;SHT31;9308;48.550;9.108;2023-02-15T07:12:27;0.24;75.02
18361;SHT31;9308;48.550;9.108;2023-02-15T07:15:19;0.38;74.53
18361;SHT31;9308;48.550;9.108;2023-02-15T07:17:46;0.45;75.17
18361;SHT31;9308;48.550;9.108;2023-02-15T07:20:18;0.55;74.63
18361;SHT31;9308;48.550;9.108;2023-02-15T07:22:44;0.65;74.91
18361;SHT31;9308;48.550;9.108;2023-02-15T07:25:11;0.69;75.09
18361;SHT31;9308;48.550;9.108;2023-02-15T07:27:37;0.75;74.99
18361;SHT31;9308;48.550;9.108;2023-02-15T07:30:03;0.88;74.81
18361;SHT31;9308;48.550;9.108;2023-02-15T07:32:30;0.97;74.82
18361;SHT31;9308;48.550;9.108;2023-02-15T07:34:56;1.00;74.96
18361;SHT31;9308;48.550;9.108;2023-02-15T07:37:22;1.09;74.83
18361;SHT31;9308;48.550;9.108;2023-02-15T07:39:47;1.28;74.74
18361;SHT31;9308;48.550;9.108;2023-02-15T07:42:13;1.33;74.86
18361;SHT31;9308;48.550;9.108;2023-02-15T07:44:39;1.58;74.10
18361;SHT31;9308;48.550;9.108;2023-02-15T07:47:04;1.47;74.33
18361;SHT31;9308;48.550;9.108;2023-02-15T07:49:29;1.64;74.67
18361;SHT31;9308;48.550;9.108;2023-02-15T07:51:55;1.64;74.93
18361;SHT31;9308;48.550;9.108;2023-02-15T07:54:20;1.81;74.23
18361;SHT31;9308;48.550;9.108;2023-02-15T07:56:46;1.87;73.89
18361;SHT31;9308;48.550;9.108;2023-02-15T07:59:11;1.76;75.01
18361;SHT31;9308;48.550;9.108;2023-02-15T08:01:38;1.99;74.51
18361;SHT31;9308;48.550;9.108;2023-02-15T08:04:05;2.11;74.12
18361;SHT31;9308;48.550;9.108;2023-02-15T08:06:35;2.21;74.56
18361;SHT31;9308;48.550;9.108;2023-02-15T08:09:04;2.55;73.52
18361;SHT31;9308;48.550;9.108;2023-02-15T08:11:31;2.66;72.72
18361;SHT31;9308;48.550;9.108;2023-02-15T08:14:13;2.92;72.76
18361;SHT31;9308;48.550;9.108;2023-02-15T08:19:20;3.21;72.54
18361;SHT31;9308;48.550;9.108;2023-02-15T08:21:51;3.41;72.11
18361;SHT31;9308;48.550;9.108;2023-02-15T08:24:19;3.55;71.65
18361;SHT31;9308;48.550;9.108;2023-02-15T08:26:46;3.58;71.80
18361;SHT31;9308;48.550;9.108;2023-02-15T08:29:18;3.76;71.38
18361;SHT31;9308;48.550;9.108;2023-02-15T08:31:44;4.04;71.17
18361;SHT31;9308;48.550;9.108;2023-02-15T08:34:13;3.82;72.04
18361;SHT31;9308;48.550;9.108;2023-02-15T08:36:39;3.87;71.57
18361;SHT31;9308;48.550;9.108;2023-02-15T08:39:05;4.10;71.29
18361;SHT31;9308;48.550;9.108;2023-02-15T08:41:36;4.21;71.51
18361;SHT31;9308;48.550;9.108;2023-02-15T08:44:05;4.21;71.64
18361;SHT31;9308;48.550;9.108;2023-02-15T08:46:34;4.64;70.39
18361;SHT31;9308;48.550;9.108;2023-02-15T08:49:00;4.62;69.86
18361;SHT31;9308;48.550;9.108;2023-02-15T08:51:29;4.76;69.75
18361;SHT31;9308;48.550;9.108;2023-02-15T08:53:56;5.20;68.56
18361;SHT31;9308;48.550;9.108;2023-02-15T08:56:25;5.23;69.58
18361;SHT31;9308;48.550;9.108;2023-02-15T08:58:52;5.36;68.64
18361;SHT31;9308;48.550;9.108;2023-02-15T09:01:21;5.08;70.10
18361;SHT31;9308;48.550;9.108;2023-02-15T09:03:49;5.35;69.15
18361;SHT31;9308;48.550;9.108;2023-02-15T09:06:16;5.39;69.32
18361;SHT31;9308;48.550;9.108;2023-02-15T09:08:42;5.48;68.98
18361;SHT31;9308;48.550;9.108;2023-02-15T09:11:09;5.72;68.11
18361;SHT31;9308;48.550;9.108;2023-02-15T09:13:34;5.87;67.67
18361;SHT31;9308;48.550;9.108;2023-02-15T09:16:01;5.66;66.77
18361;SHT31;9308;48.550;9.108;2023-02-15T09:18:30;6.16;65.59
18361;SHT31;9308;48.550;9.108;2023-02-15T09:20:56;6.35;65.41
18361;SHT31;9308;48.550;9.108;2023-02-15T09:23:21;6.72;64.37
18361;SHT31;9308;48.550;9.108;2023-02-15T09:25:47;6.75;64.20
18361;SHT31;9308;48.550;9.108;2023-02-15T09:28:12;7.04;63.34
18361;SHT31;9308;48.550;9.108;2023-02-15T09:30:38;6.75;62.56
18361;SHT31;9308;48.550;9.108;2023-02-15T09:33:03;6.86;63.66
18361;SHT31;9308;48.550;9.108;2023-02-15T09:35:29;6.99;63.35
18361;SHT31;9308;48.550;9.108;2023-02-15T09:37:54;7.34;63.50
18361;SHT31;9308;48.550;9.108;2023-02-15T09:40:20;7.48;61.99
18361;SHT31;9308;48.550;9.108;2023-02-15T09:42:54;7.82;61.54
18361;SHT31;9308;48.550;9.108;2023-02-15T09:45:46;7.65;62.19
18361;SHT31;9308;48.550;9.108;2023-02-15T09:48:35;7.90;60.40
18361;SHT31;9308;48.550;9.108;2023-02-15T09:56:33;8.77;59.70
18361;SHT31;9308;48.550;9.108;2023-02-15T09:59:08;8.99;58.00
18361;SHT31;9308;48.550;9.108;2023-02-15T10:04:30;9.28;56.49
18361;SHT31;9308;48.550;9.108;2023-02-15T10:07:40;9.67;54.05
18361;SHT31;9308;48.550;9.108;2023-02-15T10:10:27;9.96;53.19
18361;SHT31;9308;48.550;9.108;2023-02-15T10:13:09;10.25;53.63
18361;SHT31;9308;48.550;9.108;2023-02-15T10:16:10;10.31;51.72
18361;SHT31;9308;48.550;9.108;2023-02-15T10:23:51;10.82;46.41
18361;SHT31;9308;48.550;9.108;2023-02-15T10:26:32;10.86;46.63
18361;SHT31;9308;48.550;9.108;2023-02-15T10:29:09;11.32;45.42
18361;SHT31;9308;48.550;9.108;2023-02-15T10:31:50;10.83;44.61
18361;SHT31;9308;48.550;9.108;2023-02-15T10:37:35;11.61;44.27
18361;SHT31;9308;48.550;9.108;2023-02-15T10:40:23;11.83;43.55
18361;SHT31;9308;48.550;9.108;2023-02-15T10:43:23;11.90;44.44
18361;SHT31;9308;48.550;9.108;2023-02-15T11:04:52;13.75;38.58
18361;SHT31;9308;48.550;9.108;2023-02-15T11:07:38;13.72;40.38
18361;SHT31;9308;48.550;9.108;2023-02-15T11:12:49;13.76;39.68
18361;SHT31;9308;48.550;9.108;2023-02-15T11:15:26;14.28;39.16
18361;SHT31;9308;48.550;9.108;2023-02-15T11:18:46;14.41;40.64
18361;SHT31;9308;48.550;9.108;2023-02-15T11:20:55;14.68;40.06
18361;SHT31;9308;48.550;9.108;2023-02-15T11:23:24;14.52;40.44
18361;SHT31;9308;48.550;9.108;2023-02-15T11:25:57;14.72;39.72
18361;SHT31;9308;48.550;9.108;2023-02-15T11:28:43;14.65;40.28
18361;SHT31;9308;48.550;9.108;2023-02-15T11:31:19;14.97;41.18
18361;SHT31;9308;48.550;9.108;2023-02-15T11:33:57;15.42;40.83
18361;SHT31;9308;48.550;9.108;2023-02-15T11:36:43;15.47;39.80
18361;SHT31;9308;48.550;9.108;2023-02-15T11:39:15;15.54;40.60
18361;SHT31;9308;48.550;9.108;2023-02-15T11:41:45;15.54;39.61
18361;SHT31;9308;48.550;9.108;2023-02-15T11:44:19;15.47;38.09
18361;SHT31;9308;48.550;9.108;2023-02-15T11:46:46;15.66;38.98
18361;SHT31;9308;48.550;9.108;2023-02-15T11:49:24;16.01;39.82
18361;SHT31;9308;48.550;9.108;2023-02-15T11:51:53;16.03;38.68
18361;SHT31;9308;48.550;9.108;2023-02-15T11:54:26;16.24;38.37
18361;SHT31;9308;48.550;9.108;2023-02-15T11:56:55;16.51;36.84
18361;SHT31;9308;48.550;9.108;2023-02-15T11:59:31;17.04;36.17
18361;SHT31;9308;48.550;9.108;2023-02-15T12:01:57;17.96;36.05
18361;SHT31;9308;48.550;9.108;2023-02-15T12:04:36;19.03;34.23
18361;SHT31;9308;48.550;9.108;2023-02-15T12:07:13;25.39;26.21
18361;SHT31;9308;48.550;9.108;2023-02-15T12:09:55;29.98;21.51
18361;SHT31;9308;48.550;9.108;2023-02-15T12:15:01;34.51;16.30
18361;SHT31;9308;48.550;9.108;2023-02-15T12:17:33;34.93;15.80
18361;SHT31;9308;48.550;9.108;2023-02-15T12:20:04;32.59;17.34
18361;SHT31;9308;48.550;9.108;2023-02-15T12:22:34;33.59;16.36
18361;SHT31;9308;48.550;9.108;2023-02-15T12:25:20;29.22;19.83
18361;SHT31;9308;48.550;9.108;2023-02-15T12:27:47;29.41;18.86
18361;SHT31;9308;48.550;9.108;2023-02-15T12:30:21;26.79;22.00
18361;SHT31;9308;48.550;9.108;2023-02-15T12:32:51;24.80;23.03
18361;SHT31;9308;48.550;9.108;2023-02-15T12:35:27;22.74;25.12
18361;SHT31;9308;48.550;9.108;2023-02-15T12:38:09;21.27;27.42
18361;SHT31;9308;48.550;9.108;2023-02-15T12:41:00;19.79;30.28
18361;SHT31;9308;48.550;9.108;2023-02-15T12:43:34;19.20;31.84
18361;SHT31;9308;48.550;9.108;2023-02-15T12:46:20;22.23;26.98
18361;SHT31;9308;48.550;9.108;2023-02-15T12:48:46;24.61;24.62
18361;SHT31;9308;48.550;9.108;2023-02-15T12:51:15;26.84;23.54
18361;SHT31;9308;48.550;9.108;2023-02-15T12:53:41;27.86;23.36
18361;SHT31;9308;48.550;9.108;2023-02-15T12:56:09;29.08;22.21
18361;SHT31;9308;48.550;9.108;2023-02-15T12:58:39;31.53;19.80
18361;SHT31;9308;48.550;9.108;2023-02-15T13:01:16;31.15;19.70
18361;SHT31;9308;48.550;9.108;2023-02-15T13:04:03;30.21;18.78
18361;SHT31;9308;48.550;9.108;2023-02-15T13:06:32;30.61;21.11
18361;SHT31;9308;48.550;9.108;2023-02-15T13:09:07;29.84;21.61
18361;SHT31;9308;48.550;9.108;2023-02-15T13:11:37;31.29;19.63
18361;SHT31;9308;48.550;9.108;2023-02-15T13:14:18;29.71;20.64
18361;SHT31;9308;48.550;9.108;2023-02-15T13:16:46;29.69;20.51
18361;SHT31;9308;48.550;9.108;2023-02-15T13:19:16;31.31;19.38
18361;SHT31;9308;48.550;9.108;2023-02-15T13:21:45;28.72;21.41
18361;SHT31;9308;48.550;9.108;2023-02-15T13:24:22;25.71;24.78
18361;SHT31;9308;48.550;9.108;2023-02-15T13:26:48;22.57;28.41
18361;SHT31;9308;48.550;9.108;2023-02-15T13:29:27;20.17;31.13
18361;SHT31;9308;48.550;9.108;2023-02-15T13:31:54;19.20;33.04
18361;SHT31;9308;48.550;9.108;2023-02-15T13:34:28;18.72;34.61
18361;SHT31;9308;48.550;9.108;2023-02-15T13:37:15;18.02;35.31
18361;SHT31;9308;48.550;9.108;2023-02-15T13:39:47;17.37;36.68
18361;SHT31;9308;48.550;9.108;2023-02-15T13:42:24;16.95;37.29
18361;SHT31;9308;48.550;9.108;2023-02-15T13:45:30;16.80;38.97
18361;SHT31;9308;48.550;9.108;2023-02-15T13:48:42;16.38;39.52
18361;SHT31;9308;48.550;9.108;2023-02-15T13:51:29;16.30;40.33
18361;SHT31;9308;48.550;9.108;2023-02-15T13:59:51;15.30;43.00
18361;SHT31;9308;48.550;9.108;2023-02-15T14:02:38;14.85;44.30
18361;SHT31;9308;48.550;9.108;2023-02-15T14:10:57;14.49;44.78
18361;SHT31;9308;48.550;9.108;2023-02-15T14:16:33;14.31;44.61
18361;SHT31;9308;48.550;9.108;2023-02-15T14:19:16;14.10;44.74
18361;SHT31;9308;48.550;9.108;2023-02-15T14:21:47;14.34;44.36
18361;SHT31;9308;48.550;9.108;2023-02-15T14:24:34;14.07;44.74
18361;SHT31;9308;48.550;9.108;2023-02-15T14:32:41;14.13;44.76
18361;SHT31;9308;48.550;9.108;2023-02-15T14:35:16;13.73;45.09
18361;SHT31;9308;48.550;9.108;2023-02-15T14:37:58;13.55;45.73
18361;SHT31;9308;48.550;9.108;2023-02-15T14:48:54;13.55;43.93
18361;SHT31;9308;48.550;9.108;2023-02-15T14:56:46;13.30;44.90
18361;SHT31;9308;48.550;9.108;2023-02-15T14:59:19;13.42;45.39
18361;SHT31;9308;48.550;9.108;2023-02-15T15:01:55;13.38;45.74
18361;SHT31;9308;48.550;9.108;2023-02-15T15:04:29;13.14;46.06
18361;SHT31;9308;48.550;9.108;2023-02-15T15:07:09;13.04;46.45
18361;SHT31;9308;48.550;9.108;2023-02-15T15:09:37;13.28;46.66
18361;SHT31;9308;48.550;9.108;2023-02-15T15:15:01;12.87;42.95
18361;SHT31;9308;48.550;9.108;2023-02-15T15:20:01;12.70;43.86
18361;SHT31;9308;48.550;9.108;2023-02-15T15:22:28;12.84;44.20
18361;SHT31;9308;48.550;9.108;2023-02-15T15:24:58;12.66;44.73
18361;SHT31;9308;48.550;9.108;2023-02-15T15:27:46;12.61;45.01
18361;SHT31;9308;48.550;9.108;2023-02-15T15:41:32;12.34;44.71
18361;SHT31;9308;48.550;9.108;2023-02-15T15:44:28;12.24;43.92
18361;SHT31;9308;48.550;9.108;2023-02-15T15:49:29;12.34;43.61
18361;SHT31;9308;48.550;9.108;2023-02-15T15:52:00;11.97;44.23
18361;SHT31;9308;48.550;9.108;2023-02-15T15:54:26;12.18;43.83
18361;SHT31;9308;48.550;9.108;2023-02-15T15:56:57;12.16;43.48
18361;SHT31;9308;48.550;9.108;2023-02-15T15:59:26;12.11;42.97
18361;SHT31;9308;48.550;9.108;2023-02-15T16:01:52;12.14;42.48
18361;SHT31;9308;48.550;9.108;2023-02-15T16:04:30;11.89;42.85
18361;SHT31;9308;48.550;9.108;2023-02-15T16:06:56;11.89;43.45
18361;SHT31;9308;48.550;9.108;2023-02-15T16:09:25;11.96;43.22
18361;SHT31;9308;48.550;9.108;2023-02-15T16:11:52;12.20;43.14
18361;SHT31;9308;48.550;9.108;2023-02-15T16:14:32;11.76;43.71
18361;SHT31;9308;48.550;9.108;2023-02-15T16:17:04;11.89;43.96
18361;SHT31;9308;48.550;9.108;2023-02-15T16:19:35;11.76;43.76
18361;SHT31;9308;48.550;9.108;2023-02-15T16:22:03;11.61;44.73
18361;SHT31;9308;48.550;9.108;2023-02-15T16:24:52;11.72;44.18
18361;SHT31;9308;48.550;9.108;2023-02-15T16:27:43;11.70;44.45
18361;SHT31;9308;48.550;9.108;2023-02-15T16:30:27;11.61;44.90
18361;SHT31;9308;48.550;9.108;2023-02-15T16:33:10;11.52;44.88
18361;SHT31;9308;48.550;9.108;2023-02-15T16:35:41;11.47;45.18
18361;SHT31;9308;48.550;9.108;2023-02-15T16:38:18;11.28;45.96
18361;SHT31;9308;48.550;9.108;2023-02-15T16:40:55;11.34;45.24
18361;SHT31;9308;48.550;9.108;2023-02-15T16:43:29;11.48;45.48
18361;SHT31;9308;48.550;9.108;2023-02-15T16:46:08;11.28;46.49
18361;SHT31;9308;48.550;9.108;2023-02-15T16:48:39;11.03;47.54
18361;SHT31;9308;48.550;9.108;2023-02-15T16:51:05;10.87;47.77
18361;SHT31;9308;48.550;9.108;2023-02-15T16:53:31;10.39;48.79
18361;SHT31;9308;48.550;9.108;2023-02-15T16:55:59;10.41;49.05
18361;SHT31;9308;48.550;9.108;2023-02-15T16:58:51;10.31;49.29
18361;SHT31;9308;48.550;9.108;2023-02-15T17:01:21;10.21;49.92
18361;SHT31;9308;48.550;9.108;2023-02-15T17:03:50;10.20;49.85
18361;SHT31;9308;48.550;9.108;2023-02-15T17:06:25;10.04;49.92
18361;SHT31;9308;48.550;9.108;2023-02-15T17:08:52;9.91;50.57
18361;SHT31;9308;48.550;9.108;2023-02-15T17:11:19;9.58;51.27
18361;SHT31;9308;48.550;9.108;2023-02-15T17:16:35;9.48;51.74
18361;SHT31;9308;48.550;9.108;2023-02-15T17:19:02;9.28;52.65
18361;SHT31;9308;48.550;9.108;2023-02-15T17:21:46;8.87;53.59
18361;SHT31;9308;48.550;9.108;2023-02-15T17:24:18;9.11;53.02
18361;SHT31;9308;48.550;9.108;2023-02-15T17:26:50;9.21;52.78
18361;SHT31;9308;48.550;9.108;2023-02-15T17:29:25;9.08;52.95
18361;SHT31;9308;48.550;9.108;2023-02-15T17:31:55;8.84;53.93
18361;SHT31;9308;48.550;9.108;2023-02-15T17:34:43;8.80;54.01
18361;SHT31;9308;48.550;9.108;2023-02-15T17:37:12;8.77;54.29
18361;SHT31;9308;48.550;9.108;2023-02-15T17:39:38;8.76;53.79
18361;SHT31;9308;48.550;9.108;2023-02-15T17:42:03;8.42;55.21
18361;SHT31;9308;48.550;9.108;2023-02-15T17:44:28;8.17;55.67
18361;SHT31;9308;48.550;9.108;2023-02-15T17:46:54;8.24;55.51
18361;SHT31;9308;48.550;9.108;2023-02-15T17:49:24;8.29;55.31
18361;SHT31;9308;48.550;9.108;2023-02-15T17:51:51;8.08;55.69
18361;SHT31;9308;48.550;9.108;2023-02-15T17:54:17;8.34;55.28
18361;SHT31;9308;48.550;9.108;2023-02-15T17:57:01;8.17;55.80
18361;SHT31;9308;48.550;9.108;2023-02-15T17:59:30;8.16;55.40
18361;SHT31;9308;48.550;9.108;2023-02-15T18:01:56;8.46;54.51
18361;SHT31;9308;48.550;9.108;2023-02-15T18:04:40;8.07;55.40
18361;SHT31;9308;48.550;9.108;2023-02-15T18:07:24;8.22;55.72
18361;SHT31;9308;48.550;9.108;2023-02-15T18:10:16;8.04;55.52
18361;SHT31;9308;48.550;9.108;2023-02-15T18:13:01;8.18;55.07
18361;SHT31;9308;48.550;9.108;2023-02-15T18:15:27;8.16;55.65
18361;SHT31;9308;48.550;9.108;2023-02-15T18:17:53;7.79;57.16
18361;SHT31;9308;48.550;9.108;2023-02-15T18:20:21;7.83;56.92
18361;SHT31;9308;48.550;9.108;2023-02-15T18:22:50;7.66;57.23
18361;SHT31;9308;48.550;9.108;2023-02-15T18:25:17;7.69;57.20